Time;durP1;ratioP1;P1;durP2;ratioP2;P2;SDS_P1;SDS_P2;PMS_P1;PMS_P2;Temp;Humidity;BMP_temperature;BMP_pressure;BME280_temperature;BME280_humidity;BME280_pressure;Samples;Min_cycle;Max_cycle;Signal;HPM_P1;HPM_P2
2023/03/31 00:01:28;;;;;;;24.27;5.53;;;11.20;99.90;;;;;;5078359;28;20429;-73
2023/03/31 00:04:03;;;;;;;25.45;5.68;;;11.10;99.90;;;;;;5063555;28;20039;-73
2023/03/31 00:06:37;;;;;;;30.40;6.80;;;11.20;99.90;;;;;;5047844;28;20044;-74
2023/03/31 00:09:17;;;;;;;23.20;5.65;;;11.10;99.90;;;;;;5078172;28;20122;-74
2023/03/31 00:11:44;;;;;;;20.48;5.00;;;11.10;99.90;;;;;;5097013;27;20094;-74
2023/03/31 00:14:11;;;;;;;21.23;5.18;;;11.20;99.90;;;;;;5077645;28;20436;-74
2023/03/31 00:16:38;;;;;;;28.52;7.00;;;11.10;99.90;;;;;;5080347;28;20044;-73
2023/03/31 00:19:05;;;;;;;20.85;5.45;;;11.10;99.90;;;;;;5075687;28;20128;-73
2023/03/31 00:21:35;;;;;;;21.67;5.05;;;11.10;99.90;;;;;;5079856;28;20070;-74
2023/03/31 00:24:04;;;;;;;23.63;5.85;;;11.10;99.90;;;;;;5077845;28;20044;-74
2023/03/31 00:26:37;;;;;;;21.58;4.93;;;11.10;99.90;;;;;;5057175;28;20043;-73
2023/03/31 00:29:05;;;;;;;22.38;5.32;;;11.00;99.90;;;;;;5078115;28;20119;-74
2023/03/31 00:31:31;;;;;;;26.63;5.38;;;10.90;99.90;;;;;;5060754;28;20152;-74
2023/03/31 00:33:57;;;;;;;21.23;5.32;;;10.90;99.90;;;;;;5076045;28;20485;-74
2023/03/31 00:36:27;;;;;;;20.83;4.88;;;10.80;99.90;;;;;;5060841;28;20049;-74
2023/03/31 00:38:57;;;;;;;27.63;6.43;;;10.80;99.90;;;;;;5090473;27;20044;-73
2023/03/31 00:41:23;;;;;;;25.02;5.05;;;10.70;99.90;;;;;;5071610;28;20409;-74
2023/03/31 00:44:01;;;;;;;24.17;5.82;;;10.60;99.90;;;;;;5094031;27;20048;-74
2023/03/31 00:46:33;;;;;;;23.27;4.72;;;10.60;99.90;;;;;;5078830;28;20043;-74
2023/03/31 00:48:59;;;;;;;22.33;4.53;;;10.50;99.90;;;;;;5082699;28;20036;-74
2023/03/31 00:51:37;;;;;;;23.17;5.43;;;10.50;99.90;;;;;;5049565;28;20547;-74
2023/03/31 00:54:07;;;;;;;23.52;5.75;;;10.40;99.90;;;;;;5058678;28;20051;-77
2023/03/31 00:56:38;;;;;;;23.23;5.35;;;10.40;99.90;;;;;;5061547;28;20077;-77
2023/03/31 00:59:09;;;;;;;23.70;5.85;;;10.30;99.90;;;;;;5076710;28;21652;-77
2023/03/31 01:01:38;;;;;;;26.90;5.72;;;10.20;99.90;;;;;;5060404;28;20203;-77
2023/03/31 01:04:08;;;;;;;24.85;5.35;;;10.10;99.90;;;;;;5060939;28;20052;-77
2023/03/31 01:06:59;;;;;;;24.50;5.88;;;10.10;99.90;;;;;;5076068;28;20058;-77
2023/03/31 01:09:33;;;;;;;24.23;4.57;;;10.10;99.90;;;;;;5059040;28;20540;-77
2023/03/31 01:12:03;;;;;;;20.55;5.35;;;10.00;99.90;;;;;;5061496;28;20649;-79
2023/03/31 01:14:30;;;;;;;20.05;5.63;;;10.00;99.90;;;;;;5066082;28;20043;-77
2023/03/31 01:16:56;;;;;;;26.40;5.25;;;10.00;99.90;;;;;;5043122;28;20107;-77
2023/03/31 01:19:44;;;;;;;19.75;5.00;;;10.00;99.90;;;;;;5054755;28;20044;-78
2023/03/31 01:22:10;;;;;;;22.70;4.95;;;9.90;99.90;;;;;;5059826;28;20780;-78
2023/03/31 01:25:17;;;;;;;25.45;4.88;;;9.90;99.90;;;;;;5081170;28;20048;-77
2023/03/31 01:28:11;;;;;;;20.23;5.10;;;9.90;99.90;;;;;;5086702;27;21292;-78
2023/03/31 01:31:15;;;;;;;24.92;5.22;;;9.90;99.90;;;;;;5063760;28;20051;-77
2023/03/31 01:34:14;;;;;;;18.92;4.82;;;9.90;99.90;;;;;;5078504;28;20082;-78
2023/03/31 01:36:49;;;;;;;22.30;4.47;;;9.90;99.90;;;;;;5076765;28;20428;-77
2023/03/31 01:39:33;;;;;;;22.70;5.38;;;9.80;99.90;;;;;;5076080;28;20056;-77
2023/03/31 01:42:37;;;;;;;24.00;5.18;;;9.90;99.90;;;;;;5076644;28;20457;-78
2023/03/31 01:45:25;;;;;;;19.05;4.95;;;9.90;99.90;;;;;;5076630;28;20409;-78
2023/03/31 01:47:56;;;;;;;22.65;5.35;;;9.90;99.90;;;;;;5071443;28;20473;-78
2023/03/31 01:50:42;;;;;;;21.67;4.80;;;9.80;99.90;;;;;;5061050;28;20071;-78
2023/03/31 01:53:21;;;;;;;19.33;4.28;;;9.90;99.90;;;;;;5075992;28;20647;-77
2023/03/31 01:56:07;;;;;;;25.88;5.32;;;9.90;99.90;;;;;;5060265;28;20509;-78
2023/03/31 01:58:42;;;;;;;23.17;5.32;;;9.80;99.90;;;;;;5054991;28;20052;-78
2023/03/31 02:01:25;;;;;;;21.25;5.47;;;9.80;99.90;;;;;;5089892;27;20055;-77
2023/03/31 02:04:12;;;;;;;21.27;5.45;;;9.80;99.90;;;;;;5078049;28;20092;-78
2023/03/31 02:06:48;;;;;;;18.88;5.00;;;9.90;99.90;;;;;;5074174;28;20624;-78
2023/03/31 02:09:26;;;;;;;22.48;4.68;;;9.80;99.90;;;;;;5096572;27;20048;-78
2023/03/31 02:11:55;;;;;;;19.20;5.38;;;9.80;99.90;;;;;;5083011;28;20040;-77
2023/03/31 02:14:24;;;;;;;20.85;5.22;;;9.80;99.90;;;;;;5076708;28;20130;-78
2023/03/31 02:17:02;;;;;;;19.23;4.78;;;9.80;99.90;;;;;;5062658;28;20047;-78
2023/03/31 02:19:38;;;;;;;19.55;4.95;;;9.80;99.90;;;;;;5079710;28;20497;-78
2023/03/31 02:22:06;;;;;;;18.70;4.97;;;9.80;99.90;;;;;;5077570;28;20405;-78
2023/03/31 02:24:35;;;;;;;20.63;5.20;;;9.80;99.90;;;;;;5059895;28;20081;-79
2023/03/31 02:27:18;;;;;;;22.00;5.80;;;9.80;99.90;;;;;;5079936;28;20041;-79
2023/03/31 02:29:44;;;;;;;18.70;5.85;;;9.80;99.90;;;;;;5067257;28;20100;-78
2023/03/31 02:32:17;;;;;;;18.27;5.07;;;9.80;99.90;;;;;;5060578;28;20044;-78
2023/03/31 02:34:43;;;;;;;18.25;4.75;;;9.80;99.90;;;;;;5086852;28;20566;-77
2023/03/31 02:37:09;;;;;;;17.60;5.50;;;9.80;99.90;;;;;;5053525;28;20062;-77
2023/03/31 02:39:40;;;;;;;18.95;5.45;;;9.80;99.90;;;;;;5030204;28;20194;-78
2023/03/31 02:42:06;;;;;;;16.70;4.78;;;9.80;99.90;;;;;;5074563;28;20433;-78
2023/03/31 02:44:36;;;;;;;16.70;4.70;;;9.80;99.90;;;;;;5081470;28;20039;-78
2023/03/31 02:47:05;;;;;;;18.95;5.47;;;9.80;99.90;;;;;;5065628;28;20063;-78
2023/03/31 02:49:32;;;;;;;19.35;5.82;;;9.90;99.90;;;;;;5077457;28;20376;-77
2023/03/31 02:52:10;;;;;;;16.08;5.00;;;9.90;99.90;;;;;;5063007;28;20063;-78
2023/03/31 02:55:01;;;;;;;19.38;5.45;;;9.90;99.90;;;;;;5078590;28;20144;-78
2023/03/31 02:58:00;;;;;;;16.05;5.18;;;9.90;99.90;;;;;;5060352;28;20083;-78
2023/03/31 03:00:55;;;;;;;16.98;5.47;;;9.90;99.90;;;;;;5083003;28;20081;-78
2023/03/31 03:03:57;;;;;;;13.95;4.82;;;9.90;99.90;;;;;;5064962;28;20086;-77
2023/03/31 03:06:43;;;;;;;17.13;5.63;;;9.90;99.90;;;;;;5081056;28;20047;-78
2023/03/31 03:09:25;;;;;;;18.50;5.60;;;9.90;99.90;;;;;;5083045;28;20766;-78
2023/03/31 03:12:05;;;;;;;20.88;6.15;;;9.90;99.90;;;;;;5096406;27;20637;-77
2023/03/31 03:14:31;;;;;;;;;;;10.00;99.90;;;;;;5063351;28;20044;-79
2023/03/31 03:17:12;;;;;;;16.40;5.80;;;10.00;99.90;;;;;;5078169;28;19954;-78
2023/03/31 03:19:42;;;;;;;17.50;6.43;;;10.00;99.90;;;;;;5076777;28;20083;-78
2023/03/31 03:22:08;;;;;;;18.95;6.65;;;10.00;99.90;;;;;;5081706;28;20451;-78
2023/03/31 03:24:34;;;;;;;15.00;6.65;;;10.10;99.90;;;;;;5063964;28;20668;-78
2023/03/31 03:27:03;;;;;;;17.13;6.43;;;10.10;99.90;;;;;;5049406;28;20043;-78
2023/03/31 03:29:31;;;;;;;13.63;6.13;;;10.10;99.90;;;;;;5080104;28;20036;-78
2023/03/31 03:31:57;;;;;;;14.27;6.32;;;10.20;99.90;;;;;;5047749;28;20609;-78
2023/03/31 03:34:24;;;;;;;14.38;6.60;;;10.20;99.90;;;;;;5062871;28;20767;-77
2023/03/31 03:36:50;;;;;;;12.90;7.18;;;10.20;99.90;;;;;;5064018;28;20202;-78
2023/03/31 03:39:16;;;;;;;14.10;7.13;;;10.20;99.90;;;;;;5042440;28;20040;-78
2023/03/31 03:41:42;;;;;;;13.88;6.72;;;10.20;99.90;;;;;;5066840;28;20054;-78
2023/03/31 03:44:07;;;;;;;17.10;7.68;;;10.20;99.90;;;;;;5044900;28;21373;-78
2023/03/31 03:46:34;;;;;;;17.55;7.65;;;10.20;99.90;;;;;;5081159;28;20044;-77
2023/03/31 03:49:02;;;;;;;15.45;7.65;;;10.20;99.90;;;;;;5079142;28;20048;-77
2023/03/31 03:51:28;;;;;;;16.23;7.65;;;10.30;99.90;;;;;;5047591;28;20082;-77
2023/03/31 03:53:57;;;;;;;17.85;8.30;;;10.20;99.90;;;;;;5047026;28;20126;-76
2023/03/31 03:56:22;;;;;;;17.00;8.55;;;10.20;99.90;;;;;;5064314;28;20040;-75
2023/03/31 03:58:49;;;;;;;14.50;8.70;;;10.20;99.90;;;;;;5078509;28;20105;-74
2023/03/31 04:01:15;;;;;;;16.70;9.15;;;10.20;99.90;;;;;;5057725;28;20387;-74
2023/03/31 04:03:41;;;;;;;21.35;8.30;;;10.20;99.90;;;;;;5060294;28;20059;-75
2023/03/31 04:06:07;;;;;;;15.07;8.43;;;10.10;99.90;;;;;;5062134;28;20039;-75
2023/03/31 04:08:33;;;;;;;15.88;8.48;;;10.20;99.90;;;;;;5064495;28;20582;-74
2023/03/31 04:11:02;;;;;;;15.48;8.80;;;10.20;99.90;;;;;;5082003;27;20052;-75
2023/03/31 04:13:28;;;;;;;15.00;8.82;;;10.10;99.90;;;;;;5082599;28;20044;-75
2023/03/31 04:15:54;;;;;;;16.20;8.82;;;10.10;99.90;;;;;;5055005;28;20069;-74
2023/03/31 04:18:22;;;;;;;14.13;7.82;;;10.10;99.90;;;;;;5066251;28;20374;-74
2023/03/31 04:21:02;;;;;;;16.67;8.27;;;10.10;99.90;;;;;;5101178;27;20045;-74
2023/03/31 04:23:41;;;;;;;17.25;8.75;;;10.10;99.90;;;;;;5084713;28;20051;-74
2023/03/31 04:26:10;;;;;;;16.85;8.80;;;10.10;99.90;;;;;;5104115;27;20506;-74
2023/03/31 04:28:41;;;;;;;15.85;9.18;;;10.10;99.90;;;;;;5089246;28;20055;-74
2023/03/31 04:31:29;;;;;;;15.82;9.35;;;10.00;99.90;;;;;;5086681;28;20043;-74
2023/03/31 04:34:01;;;;;;;15.45;9.10;;;10.10;99.90;;;;;;5083999;28;20393;-74
2023/03/31 04:36:30;;;;;;;15.43;8.82;;;10.10;99.90;;;;;;5070417;28;20046;-74
2023/03/31 04:38:56;;;;;;;15.57;8.13;;;10.00;99.90;;;;;;5066228;28;20044;-72
2023/03/31 04:41:23;;;;;;;18.75;9.25;;;10.00;99.90;;;;;;5078071;28;20048;-72
2023/03/31 04:43:49;;;;;;;17.33;8.80;;;10.00;99.90;;;;;;5081935;28;20494;-72
2023/03/31 04:46:15;;;;;;;17.65;8.98;;;10.00;99.90;;;;;;5066273;28;20064;-72
2023/03/31 04:48:41;;;;;;;17.17;8.00;;;10.00;99.90;;;;;;5079446;28;20053;-72
2023/03/31 04:51:08;;;;;;;16.73;8.38;;;10.00;99.90;;;;;;5061810;28;20747;-72
2023/03/31 04:53:37;;;;;;;15.57;7.72;;;10.00;99.90;;;;;;5080422;28;21857;-72
2023/03/31 04:56:02;;;;;;;17.55;8.55;;;10.10;99.90;;;;;;5067001;28;20051;-72
2023/03/31 04:58:28;;;;;;;17.52;8.07;;;10.10;99.90;;;;;;5087620;28;20063;-72
2023/03/31 05:00:54;;;;;;;16.88;8.35;;;10.10;99.90;;;;;;5079775;28;20047;-72
2023/03/31 05:03:20;;;;;;;15.30;7.70;;;10.10;99.90;;;;;;5063323;28;20047;-72
2023/03/31 05:05:46;;;;;;;19.80;8.50;;;10.10;99.90;;;;;;5046823;28;20040;-72
2023/03/31 05:08:12;;;;;;;17.77;8.32;;;10.10;99.90;;;;;;5068051;28;20051;-72
2023/03/31 05:10:38;;;;;;;16.85;8.10;;;10.10;99.90;;;;;;5084217;28;20054;-72
2023/03/31 05:13:04;;;;;;;13.57;6.63;;;10.10;99.90;;;;;;5066982;28;20048;-72
2023/03/31 05:15:30;;;;;;;14.40;7.32;;;10.10;99.90;;;;;;5069520;28;20989;-72
2023/03/31 05:18:01;;;;;;;17.25;7.50;;;10.10;99.90;;;;;;5070437;28;20892;-72
2023/03/31 05:20:27;;;;;;;13.60;6.82;;;10.10;99.90;;;;;;5083350;28;20097;-72
2023/03/31 05:22:53;;;;;;;16.17;7.15;;;10.10;99.90;;;;;;5086596;28;20060;-73
2023/03/31 05:25:19;;;;;;;17.80;7.82;;;10.10;99.90;;;;;;5052824;28;20481;-72
2023/03/31 05:27:46;;;;;;;14.15;6.88;;;10.10;99.90;;;;;;5077377;28;20047;-72
2023/03/31 05:30:13;;;;;;;15.98;7.40;;;10.10;99.90;;;;;;5054943;28;20978;-72
2023/03/31 05:32:39;;;;;;;13.52;7.05;;;10.10;99.90;;;;;;5098302;27;20122;-72
2023/03/31 05:35:06;;;;;;;13.50;7.15;;;10.00;99.90;;;;;;5087631;28;20114;-72
2023/03/31 05:37:32;;;;;;;14.45;7.20;;;10.10;99.90;;;;;;5077880;27;20044;-72
2023/03/31 05:39:58;;;;;;;16.10;7.65;;;10.00;99.90;;;;;;5088691;28;20043;-72
2023/03/31 05:42:24;;;;;;;13.50;7.75;;;10.00;99.90;;;;;;5100127;27;20101;-72
2023/03/31 05:44:50;;;;;;;16.33;7.78;;;10.00;99.90;;;;;;5059221;28;20081;-72
2023/03/31 05:47:16;;;;;;;16.98;7.75;;;10.00;99.90;;;;;;5078963;28;20048;-72
2023/03/31 05:49:42;;;;;;;13.13;7.82;;;10.00;99.90;;;;;;5095913;27;20524;-72
2023/03/31 05:52:08;;;;;;;14.38;7.47;;;10.00;99.90;;;;;;5082576;28;20474;-72
2023/03/31 05:54:34;;;;;;;21.23;9.82;;;10.00;99.90;;;;;;5046930;28;20564;-72
2023/03/31 05:57:00;;;;;;;14.73;8.65;;;10.00;99.90;;;;;;5079010;28;20099;-72
2023/03/31 05:59:26;;;;;;;15.70;8.73;;;10.00;99.90;;;;;;5059018;28;20047;-71
2023/03/31 06:01:52;;;;;;;15.98;9.23;;;10.00;99.90;;;;;;5077635;28;20048;-72
2023/03/31 06:04:18;;;;;;;17.30;10.27;;;10.00;99.90;;;;;;5065204;28;20525;-71
2023/03/31 06:06:45;;;;;;;17.52;8.35;;;9.90;99.90;;;;;;5080679;28;20043;-72
2023/03/31 06:09:11;;;;;;;15.15;8.48;;;10.00;99.90;;;;;;5081695;28;20393;-71
2023/03/31 06:11:37;;;;;;;15.13;8.88;;;10.00;99.90;;;;;;5062190;28;20036;-72
2023/03/31 06:14:04;;;;;;;16.70;8.38;;;10.00;99.90;;;;;;5063600;28;20619;-74
2023/03/31 06:16:35;;;;;;;12.35;7.75;;;10.00;99.90;;;;;;5080596;28;20052;-75
2023/03/31 06:19:02;;;;;;;20.00;8.73;;;10.00;99.90;;;;;;5082635;28;20047;-74
2023/03/31 06:21:27;;;;;;;13.75;8.60;;;10.00;99.90;;;;;;5066424;28;20502;-74
2023/03/31 06:23:57;;;;;;;13.63;8.38;;;10.00;99.90;;;;;;5063916;28;20047;-74
2023/03/31 06:26:23;;;;;;;16.23;8.02;;;9.90;99.90;;;;;;5063837;28;20048;-74
2023/03/31 06:28:49;;;;;;;14.35;8.07;;;9.90;99.90;;;;;;5064719;28;20119;-74
2023/03/31 06:31:18;;;;;;;14.85;7.40;;;10.00;99.90;;;;;;5062072;28;20604;-74
2023/03/31 06:33:44;;;;;;;13.32;7.50;;;10.00;99.90;;;;;;5061458;28;20147;-74
2023/03/31 06:36:12;;;;;;;12.05;6.90;;;9.90;99.90;;;;;;5057523;28;20506;-74
2023/03/31 06:38:38;;;;;;;11.15;6.70;;;10.00;99.90;;;;;;5062282;28;20652;-74
2023/03/31 06:41:05;;;;;;;10.35;6.53;;;10.00;99.90;;;;;;5077233;28;20055;-74
2023/03/31 06:43:31;;;;;;;12.70;6.68;;;10.00;99.90;;;;;;5062550;28;20414;-75
2023/03/31 06:45:57;;;;;;;13.38;7.38;;;10.00;99.90;;;;;;5064329;28;20043;-73
2023/03/31 06:48:24;;;;;;;13.57;7.47;;;10.00;99.90;;;;;;5059599;28;20044;-73
2023/03/31 06:50:50;;;;;;;10.55;6.88;;;10.00;99.90;;;;;;5060049;28;20043;-73
2023/03/31 06:53:20;;;;;;;13.05;7.20;;;10.00;99.90;;;;;;5061702;28;20408;-73
2023/03/31 06:55:46;;;;;;;;;;;10.00;99.90;;;;;;5062855;28;20064;-74
2023/03/31 06:58:12;;;;;;;15.98;7.95;;;10.00;99.90;;;;;;5063966;28;19935;-74
2023/03/31 07:00:38;;;;;;;17.27;9.23;;;10.00;99.90;;;;;;5055139;28;20115;-74
2023/03/31 07:03:05;;;;;;;14.85;7.18;;;10.00;99.90;;;;;;5054872;28;20109;-73
2023/03/31 07:05:31;;;;;;;14.32;7.25;;;10.00;99.90;;;;;;5068626;28;20132;-74
2023/03/31 07:08:03;;;;;;;16.55;8.23;;;10.00;99.90;;;;;;5075909;28;20047;-73
2023/03/31 07:10:32;;;;;;;17.10;8.30;;;10.00;99.90;;;;;;5074734;28;20052;-73
2023/03/31 07:12:58;;;;;;;12.23;7.70;;;10.10;99.90;;;;;;5040245;28;20100;-74
2023/03/31 07:15:27;;;;;;;14.73;8.02;;;10.00;99.90;;;;;;5060997;28;20055;-74
2023/03/31 07:18:00;;;;;;;13.65;7.43;;;10.00;99.90;;;;;;5053729;28;20150;-74
2023/03/31 07:20:29;;;;;;;13.75;7.72;;;10.00;99.90;;;;;;5052539;28;20531;-74
2023/03/31 07:22:56;;;;;;;15.07;7.97;;;10.00;99.90;;;;;;5070536;28;20349;-74
2023/03/31 07:25:22;;;;;;;17.20;8.57;;;10.00;99.90;;;;;;5050271;28;20048;-73
2023/03/31 07:27:47;;;;;;;14.02;7.53;;;10.00;99.90;;;;;;5053639;28;20036;-73
2023/03/31 07:30:21;;;;;;;15.45;7.80;;;10.00;99.90;;;;;;5069163;28;20044;-73
2023/03/31 07:32:48;;;;;;;11.80;7.30;;;10.00;99.90;;;;;;5050665;28;20828;-73
2023/03/31 07:35:14;;;;;;;12.48;8.02;;;10.00;99.90;;;;;;5053116;28;20105;-73
2023/03/31 07:37:43;;;;;;;11.73;6.68;;;10.10;99.90;;;;;;5035695;28;20584;-73
2023/03/31 07:40:26;;;;;;;12.82;6.35;;;10.10;99.90;;;;;;5048626;28;20048;-74
2023/03/31 07:42:53;;;;;;;12.40;6.60;;;10.10;99.90;;;;;;5079278;27;20158;-73
2023/03/31 07:45:20;;;;;;;13.07;6.25;;;10.10;99.90;;;;;;5071528;28;20251;-74
2023/03/31 07:47:47;;;;;;;12.30;6.70;;;10.10;99.90;;;;;;5073821;28;20825;-73
2023/03/31 07:50:14;;;;;;;12.85;6.93;;;10.20;99.90;;;;;;5088498;27;20040;-73
2023/03/31 07:52:40;;;;;;;15.60;7.07;;;10.20;99.90;;;;;;5068749;28;20046;-73
2023/03/31 07:55:10;;;;;;;13.07;6.65;;;10.20;99.90;;;;;;5072122;28;20054;-73
2023/03/31 07:57:37;;;;;;;14.70;6.95;;;10.20;99.90;;;;;;5053960;28;20709;-73
2023/03/31 08:00:09;;;;;;;13.63;7.00;;;10.20;99.90;;;;;;5073822;28;21036;-73
2023/03/31 08:02:35;;;;;;;13.55;7.38;;;10.30;99.90;;;;;;5071409;28;21165;-74
2023/03/31 08:05:01;;;;;;;12.30;6.85;;;10.30;99.90;;;;;;5072713;28;20154;-74
2023/03/31 08:07:29;;;;;;;13.02;6.35;;;10.30;99.90;;;;;;5087976;27;20099;-74
2023/03/31 08:09:55;;;;;;;17.65;8.00;;;10.30;99.90;;;;;;5051221;28;20130;-74
2023/03/31 08:12:21;;;;;;;12.50;6.97;;;10.30;99.90;;;;;;5069124;28;20047;-73
2023/03/31 08:14:47;;;;;;;13.98;6.57;;;10.40;99.90;;;;;;5084944;27;20071;-74
2023/03/31 08:17:13;;;;;;;18.17;8.00;;;10.40;99.90;;;;;;5070054;28;20475;-73
2023/03/31 08:19:39;;;;;;;16.23;7.18;;;10.40;99.90;;;;;;5056777;27;20051;-74
2023/03/31 08:22:05;;;;;;;16.00;7.22;;;10.40;99.90;;;;;;5055399;28;21357;-73
2023/03/31 08:24:31;;;;;;;19.23;7.53;;;10.40;99.90;;;;;;5072458;28;20071;-73
2023/03/31 08:26:57;;;;;;;15.25;6.63;;;10.40;99.90;;;;;;5059383;28;20052;-73
2023/03/31 08:29:23;;;;;;;14.95;7.00;;;10.50;99.90;;;;;;5081148;27;21356;-73
2023/03/31 08:31:56;;;;;;;15.35;6.28;;;10.50;99.90;;;;;;5063980;28;20044;-73
2023/03/31 08:34:21;;;;;;;14.40;6.57;;;10.50;99.90;;;;;;5068968;28;20549;-73
2023/03/31 08:36:47;;;;;;;11.65;6.18;;;10.50;99.90;;;;;;5052775;28;21215;-73
2023/03/31 08:39:13;;;;;;;12.98;5.22;;;10.50;99.90;;;;;;5037730;28;20043;-74
2023/03/31 08:41:49;;;;;;;13.02;6.00;;;10.60;99.90;;;;;;5071012;28;20047;-73
2023/03/31 08:44:36;;;;;;;12.90;5.22;;;10.60;99.90;;;;;;5087620;27;21230;-74
2023/03/31 08:47:05;;;;;;;11.82;5.95;;;10.60;99.90;;;;;;5054593;28;20052;-73
2023/03/31 08:50:01;;;;;;;14.18;5.88;;;10.60;99.90;;;;;;5068613;28;20072;-72
2023/03/31 08:52:41;;;;;;;12.25;5.90;;;10.60;99.90;;;;;;5072944;28;20062;-73
2023/03/31 08:55:15;;;;;;;13.75;6.00;;;10.60;99.90;;;;;;5055276;28;20450;-73
2023/03/31 08:57:50;;;;;;;16.70;6.65;;;10.60;99.90;;;;;;5072276;28;20600;-73
2023/03/31 09:00:17;;;;;;;12.18;6.00;;;10.70;99.90;;;;;;5072110;28;20052;-73
2023/03/31 09:03:17;;;;;;;11.15;5.15;;;10.70;99.90;;;;;;5055283;28;20267;-73
2023/03/31 09:05:55;;;;;;;12.73;6.28;;;10.70;99.90;;;;;;5083438;27;20647;-73
2023/03/31 09:08:36;;;;;;;11.90;5.57;;;10.70;99.90;;;;;;5050000;28;20048;-74
2023/03/31 09:11:33;;;;;;;13.10;6.90;;;10.80;99.90;;;;;;5054206;28;20051;-73
2023/03/31 09:14:05;;;;;;;11.80;5.47;;;10.80;99.90;;;;;;5068964;28;20975;-73
2023/03/31 09:16:37;;;;;;;16.65;6.57;;;10.80;99.90;;;;;;5044391;28;20043;-74
2023/03/31 09:19:25;;;;;;;9.82;5.82;;;10.80;99.90;;;;;;5071396;27;20051;-74
2023/03/31 09:21:53;;;;;;;14.07;6.20;;;10.90;99.90;;;;;;5072790;28;20069;-73
2023/03/31 09:24:26;;;;;;;13.88;5.82;;;10.90;99.90;;;;;;5072480;28;20978;-73
2023/03/31 09:26:56;;;;;;;11.43;5.53;;;11.00;99.90;;;;;;5092283;27;20182;-73
2023/03/31 09:29:41;;;;;;;9.57;5.72;;;11.10;99.90;;;;;;5057608;28;20132;-73
2023/03/31 09:32:19;;;;;;;12.18;5.43;;;11.20;99.90;;;;;;5074669;28;21079;-73
2023/03/31 09:34:49;;;;;;;8.93;4.50;;;11.20;99.90;;;;;;5059289;28;20429;-73
2023/03/31 09:37:15;;;;;;;11.32;5.10;;;11.20;99.90;;;;;;5057427;28;20097;-74
2023/03/31 09:39:41;;;;;;;11.20;5.45;;;11.20;99.90;;;;;;5058193;28;20048;-73
2023/03/31 09:42:11;;;;;;;11.65;4.38;;;11.20;99.90;;;;;;5055715;28;20440;-74
2023/03/31 09:44:38;;;;;;;;;;;11.30;99.90;;;;;;5072682;28;21062;-74
2023/03/31 09:47:09;;;;;;;8.57;4.32;;;11.30;99.90;;;;;;5049633;28;20416;-74
2023/03/31 09:49:36;;;;;;;8.15;3.47;;;11.20;99.90;;;;;;5068893;28;20581;-74
2023/03/31 09:52:30;;;;;;;10.90;4.13;;;11.30;99.90;;;;;;5056937;28;20047;-73
2023/03/31 09:54:59;;;;;;;8.40;3.67;;;11.30;99.90;;;;;;5074599;28;20109;-73
2023/03/31 09:57:38;;;;;;;9.73;4.53;;;11.30;99.90;;;;;;5050258;28;20076;-73
2023/03/31 10:00:17;;;;;;;10.35;4.13;;;11.30;99.90;;;;;;5056873;28;20301;-73
2023/03/31 10:03:02;;;;;;;6.68;3.90;;;11.30;99.90;;;;;;5061806;28;20309;-73
2023/03/31 10:05:32;;;;;;;7.90;3.50;;;11.30;99.90;;;;;;5056644;28;20457;-73
2023/03/31 10:08:10;;;;;;;7.75;3.95;;;11.40;99.90;;;;;;5069596;28;20055;-73
2023/03/31 10:10:36;;;;;;;7.10;3.42;;;11.40;99.90;;;;;;5075410;28;20047;-73
2023/03/31 10:13:08;;;;;;;6.47;3.80;;;11.50;99.90;;;;;;5085340;27;20052;-73
2023/03/31 10:15:37;;;;;;;8.32;3.80;;;11.50;99.90;;;;;;5046103;28;21877;-74
2023/03/31 10:18:03;;;;;;;6.90;3.58;;;11.50;99.90;;;;;;5049864;28;20050;-74
2023/03/31 10:20:35;;;;;;;8.27;3.58;;;11.60;99.90;;;;;;5034713;28;20059;-74
2023/03/31 10:23:15;;;;;;;9.73;3.97;;;11.60;99.90;;;;;;5065045;28;20118;-74
2023/03/31 10:25:41;;;;;;;8.40;3.67;;;11.70;99.90;;;;;;5050566;28;20316;-74
2023/03/31 10:28:12;;;;;;;9.45;4.40;;;11.70;99.90;;;;;;5085423;27;20051;-75
2023/03/31 10:30:39;;;;;;;7.43;4.20;;;11.70;99.90;;;;;;5049980;28;20704;-75
2023/03/31 10:33:15;;;;;;;8.70;4.22;;;11.80;99.90;;;;;;5037363;28;20455;-75
2023/03/31 10:35:41;;;;;;;7.05;3.95;;;11.90;99.90;;;;;;5081787;28;20052;-75
2023/03/31 10:38:12;;;;;;;9.45;4.15;;;12.00;99.90;;;;;;5051737;28;20059;-75
2023/03/31 10:40:40;;;;;;;8.40;3.90;;;12.00;99.90;;;;;;5054429;28;20079;-75
2023/03/31 10:43:15;;;;;;;9.82;4.10;;;12.10;99.90;;;;;;5052525;28;21558;-74
2023/03/31 10:45:49;;;;;;;8.52;4.07;;;12.20;99.90;;;;;;5066467;28;20060;-74
2023/03/31 10:48:40;;;;;;;8.10;3.85;;;12.30;99.90;;;;;;5065364;28;20732;-74
2023/03/31 10:51:38;;;;;;;7.25;3.72;;;12.40;99.90;;;;;;5068000;28;20040;-74
2023/03/31 10:54:08;;;;;;;9.80;4.38;;;12.40;99.90;;;;;;5062614;28;20086;-74
2023/03/31 10:56:42;;;;;;;8.55;3.70;;;12.50;99.90;;;;;;5048130;28;20040;-72
2023/03/31 10:59:21;;;;;;;6.55;3.05;;;12.60;99.90;;;;;;5042916;28;20051;-72
2023/03/31 11:02:05;;;;;;;6.68;3.13;;;12.60;99.90;;;;;;5031121;28;20621;-71
2023/03/31 11:04:46;;;;;;;7.93;3.50;;;12.50;99.90;;;;;;5046883;28;21229;-74
2023/03/31 11:07:37;;;;;;;7.88;3.20;;;12.50;99.90;;;;;;5063188;28;20055;-73
2023/03/31 11:10:21;;;;;;;;;;;12.50;99.90;;;;;;5085186;28;20505;-72
2023/03/31 11:13:11;;;;;;;8.80;3.95;;;12.30;99.90;;;;;;5067941;28;19927;-72
2023/03/31 11:16:00;;;;;;;9.82;4.10;;;12.20;99.90;;;;;;5068291;28;20577;-72
2023/03/31 11:18:40;;;;;;;9.70;4.20;;;12.10;99.90;;;;;;5064502;28;20736;-73
2023/03/31 11:21:15;;;;;;;8.02;3.45;;;12.00;99.90;;;;;;5065390;28;20052;-73
2023/03/31 11:24:25;;;;;;;7.07;3.63;;;12.10;99.90;;;;;;5053223;28;20040;-72
2023/03/31 11:26:55;;;;;;;12.30;4.53;;;12.10;99.90;;;;;;5061517;28;20088;-72
2023/03/31 11:29:56;;;;;;;9.40;4.13;;;12.00;99.90;;;;;;5085049;27;20079;-72
2023/03/31 11:32:46;;;;;;;9.75;3.60;;;12.00;99.90;;;;;;5052515;28;20373;-72
2023/03/31 11:36:01;;;;;;;8.75;4.25;;;12.00;99.90;;;;;;5064604;28;21547;-72
2023/03/31 11:38:52;;;;;;;12.30;4.70;;;12.00;99.90;;;;;;5066279;28;20375;-72
2023/03/31 11:41:35;;;;;;;10.02;4.40;;;12.00;99.90;;;;;;5069973;28;20375;-73
2023/03/31 11:44:10;;;;;;;8.77;4.97;;;12.10;99.90;;;;;;5040503;28;20047;-73
2023/03/31 11:47:07;;;;;;;9.63;5.18;;;12.20;99.90;;;;;;5063205;28;20799;-73
2023/03/31 11:49:49;;;;;;;11.27;4.38;;;12.40;99.90;;;;;;5052083;28;20055;-72
2023/03/31 11:52:18;;;;;;;8.85;4.40;;;12.40;99.90;;;;;;5057296;28;20457;-73
2023/03/31 11:55:10;;;;;;;10.35;4.07;;;12.50;99.90;;;;;;5051616;28;20047;-73
2023/03/31 11:57:41;;;;;;;11.55;4.22;;;12.50;99.90;;;;;;5066933;28;20466;-73
2023/03/31 12:00:21;;;;;;;9.48;4.45;;;12.50;99.90;;;;;;5065723;28;20044;-73
2023/03/31 12:03:09;;;;;;;10.13;5.03;;;12.60;99.90;;;;;;5060669;28;20739;-73
2023/03/31 12:05:43;;;;;;;11.38;5.50;;;12.60;99.90;;;;;;5046624;28;21601;-73
2023/03/31 12:08:18;;;;;;;10.85;5.65;;;12.60;99.90;;;;;;5053325;28;20505;-73
2023/03/31 12:10:50;;;;;;;8.73;5.40;;;12.50;99.90;;;;;;5049324;28;20044;-73
2023/03/31 12:13:28;;;;;;;10.90;5.53;;;12.60;99.90;;;;;;5085957;27;20051;-73
2023/03/31 12:16:14;;;;;;;12.25;5.50;;;12.60;99.90;;;;;;5049043;28;20078;-73
2023/03/31 12:19:16;;;;;;;11.85;6.03;;;12.70;99.90;;;;;;5063005;28;21881;-73
2023/03/31 12:21:49;;;;;;;11.52;5.35;;;12.70;99.90;;;;;;5063118;28;20060;-73
2023/03/31 12:24:15;;;;;;;13.35;6.40;;;12.70;99.90;;;;;;5068136;28;20464;-73
2023/03/31 12:26:56;;;;;;;14.68;6.65;;;12.70;99.90;;;;;;5063015;28;20043;-73
2023/03/31 12:29:47;;;;;;;14.65;5.78;;;12.80;99.90;;;;;;5068563;28;20051;-74
2023/03/31 12:32:24;;;;;;;11.43;5.10;;;12.80;99.90;;;;;;5066666;28;20055;-73
2023/03/31 12:35:10;;;;;;;13.43;5.30;;;12.80;99.90;;;;;;5049269;28;20051;-73
2023/03/31 12:38:08;;;;;;;11.57;5.50;;;12.80;99.90;;;;;;5068201;28;21292;-74
2023/03/31 12:41:17;;;;;;;13.30;5.65;;;12.80;99.90;;;;;;5070761;28;20296;-74
2023/03/31 12:44:06;;;;;;;12.32;5.30;;;12.90;99.90;;;;;;5035189;28;20060;-73
2023/03/31 12:46:51;;;;;;;11.50;5.57;;;12.90;99.90;;;;;;5067520;28;20483;-74
2023/03/31 12:49:41;;;;;;;12.68;4.68;;;13.00;99.90;;;;;;5066191;28;20670;-73
2023/03/31 12:52:26;;;;;;;;;;;13.00;99.90;;;;;;5052216;28;20873;-74
2023/03/31 12:55:01;;;;;;;17.13;6.28;;;13.00;99.90;;;;;;5068772;28;20097;-73
2023/03/31 12:57:28;;;;;;;13.50;6.05;;;13.00;99.90;;;;;;5065971;28;20066;-74
2023/03/31 13:00:31;;;;;;;15.20;5.13;;;13.00;99.90;;;;;;5051342;28;20125;-74
2023/03/31 13:03:32;;;;;;;15.75;5.75;;;13.00;99.90;;;;;;5030477;28;20051;-73
2023/03/31 13:05:59;;;;;;;15.00;5.57;;;12.90;99.90;;;;;;5062411;28;20395;-73
2023/03/31 13:08:51;;;;;;;13.03;3.97;;;12.80;99.90;;;;;;5039222;28;20059;-74
2023/03/31 13:11:39;;;;;;;18.08;5.57;;;12.80;99.90;;;;;;5068669;28;20063;-74
2023/03/31 13:14:25;;;;;;;15.05;5.10;;;12.70;99.90;;;;;;5069936;28;20051;-74